Time;durP1;ratioP1;P1;durP2;ratioP2;P2;SDS_P1;SDS_P2;PMS_P1;PMS_P2;Temp;Humidity;BMP_temperature;BMP_pressure;BME280_temperature;BME280_humidity;BME280_pressure;Samples;Min_cycle;Max_cycle;Signal;HPM_P1;HPM_P2
2022/02/05 00:02:48;;;;;;;19.00;18.00;;;6.20;81.30;;;;;;5115923;28;20190;-72
2022/02/05 00:05:18;;;;;;;18.60;17.50;;;6.20;80.90;;;;;;5115798;28;20257;-73
2022/02/05 00:07:56;;;;;;;18.55;17.65;;;6.20;80.00;;;;;;5115779;28;20563;-73
2022/02/05 00:10:57;;;;;;;19.25;18.30;;;6.10;79.60;;;;;;5115361;28;20283;-72
2022/02/05 00:13:37;;;;;;;19.27;18.30;;;6.00;80.30;;;;;;5115261;28;20191;-72
2022/02/05 00:19:43;;;;;;;18.63;17.73;;;6.00;80.20;;;;;;5115563;28;20216;-72
2022/02/05 00:38:25;;;;;;;18.75;17.75;;;5.70;80.50;;;;;;5115230;28;20221;-73
2022/02/05 00:40:57;;;;;;;18.85;17.95;;;5.70;81.40;;;;;;5115046;28;20301;-72
2022/02/05 00:43:26;;;;;;;19.05;18.15;;;5.70;81.10;;;;;;5114922;28;20578;-72
2022/02/05 00:45:55;;;;;;;19.38;18.33;;;5.60;79.30;;;;;;5114780;28;20695;-72
2022/02/05 00:48:23;;;;;;;19.40;18.40;;;5.50;79.10;;;;;;5115032;28;20218;-72
2022/02/05 00:50:54;;;;;;;19.00;18.00;;;5.40;77.70;;;;;;5114739;27;20298;-72
2022/02/05 00:53:30;;;;;;;19.70;18.52;;;5.30;78.30;;;;;;5114810;28;20238;-72
2022/02/05 00:56:06;;;;;;;19.73;18.60;;;5.30;77.90;;;;;;5114769;28;20218;-72
2022/02/05 00:58:37;;;;;;;19.23;18.13;;;5.20;77.50;;;;;;5114734;28;20659;-72
2022/02/05 01:01:04;;;;;;;20.27;19.05;;;5.20;77.40;;;;;;5114663;28;20224;-72
2022/02/05 01:03:31;;;;;;;19.60;18.50;;;5.10;77.30;;;;;;5114644;28;20203;-72
2022/02/05 01:05:58;;;;;;;19.60;18.60;;;5.00;76.90;;;;;;5114697;28;20318;-72
2022/02/05 01:08:25;;;;;;;19.17;18.20;;;5.00;76.70;;;;;;5113526;28;20735;-72
2022/02/05 01:10:53;;;;;;;20.20;19.10;;;4.80;76.50;;;;;;5114108;28;20267;-72
2022/02/05 01:13:22;;;;;;;19.98;18.50;;;4.70;77.50;;;;;;5114449;28;20205;-72
2022/02/05 01:15:57;;;;;;;19.50;18.38;;;4.70;76.70;;;;;;5114377;28;20191;-72
2022/02/05 01:18:25;;;;;;;20.60;19.05;;;4.60;79.60;;;;;;5114202;28;20194;-72
2022/02/05 01:21:14;;;;;;;19.92;18.92;;;4.60;77.30;;;;;;5114041;28;20219;-72
2022/02/05 01:23:45;;;;;;;19.80;18.80;;;4.60;77.00;;;;;;5114107;28;20194;-72
2022/02/05 01:26:19;;;;;;;19.92;18.92;;;4.50;76.80;;;;;;5114095;28;20688;-72
2022/02/05 01:28:53;;;;;;;19.33;18.13;;;4.40;77.20;;;;;;5114016;28;20199;-72
2022/02/05 01:31:24;;;;;;;19.77;18.50;;;4.40;77.40;;;;;;5113874;28;20218;-72
2022/02/05 01:34:04;;;;;;;19.38;18.38;;;4.50;76.90;;;;;;5114080;28;20699;-72
2022/02/05 01:39:26;;;;;;;20.45;19.25;;;4.40;79.50;;;;;;5114143;28;20281;-72
2022/02/05 01:48:46;;;;;;;20.42;19.10;;;4.30;79.90;;;;;;5113789;28;20263;-72
2022/02/05 01:50:57;;;;;;;20.23;18.75;;;4.20;77.50;;;;;;5113685;28;20214;-72
2022/02/05 01:53:48;;;;;;;19.45;18.52;;;4.30;77.30;;;;;;5113682;28;20198;-73
2022/02/05 01:56:33;;;;;;;19.67;18.67;;;4.30;77.20;;;;;;5113749;28;20208;-72
2022/02/05 01:59:17;;;;;;;20.05;18.95;;;4.20;77.30;;;;;;5113571;28;20701;-72
2022/02/05 02:04:51;;;;;;;20.23;19.23;;;4.00;79.50;;;;;;5113579;28;20193;-72
2022/02/05 02:10:40;;;;;;;19.60;18.58;;;3.80;80.60;;;;;;5113213;28;20280;-72
2022/02/05 02:13:31;;;;;;;19.30;18.30;;;3.70;81.00;;;;;;5113379;28;20652;-72
2022/02/05 02:16:09;;;;;;;19.20;18.20;;;3.70;81.90;;;;;;5113260;28;20628;-72
2022/02/05 02:18:50;;;;;;;19.60;18.50;;;3.70;82.00;;;;;;5113098;28;20632;-72
2022/02/05 02:21:27;;;;;;;20.02;18.75;;;3.60;83.60;;;;;;5113085;28;20225;-72
2022/02/05 02:24:03;;;;;;;18.98;17.80;;;3.60;83.60;;;;;;5113207;28;20197;-72
2022/02/05 02:26:42;;;;;;;18.67;17.65;;;3.60;84.00;;;;;;5113151;28;20305;-72
2022/02/05 02:29:13;;;;;;;19.38;18.48;;;3.60;82.80;;;;;;5112935;28;20259;-72
2022/02/05 02:31:43;;;;;;;19.73;18.70;;;3.50;82.60;;;;;;5113191;28;20214;-72
2022/02/05 02:34:15;;;;;;;18.80;17.90;;;3.50;83.10;;;;;;5113147;28;20190;-72
2022/02/05 02:36:49;;;;;;;18.90;17.90;;;3.50;83.70;;;;;;5113277;28;20336;-72
2022/02/05 02:39:19;;;;;;;18.92;17.92;;;3.40;84.20;;;;;;5112920;28;20205;-72
2022/02/05 02:41:50;;;;;;;20.83;19.33;;;3.60;83.30;;;;;;5112886;28;20214;-72
2022/02/05 02:44:17;;;;;;;19.10;18.00;;;3.60;83.70;;;;;;5112725;28;20674;-72
2022/02/05 02:46:44;;;;;;;19.63;18.40;;;3.60;83.70;;;;;;5112965;28;20739;-72
2022/02/05 02:49:16;;;;;;;20.00;18.90;;;3.60;82.10;;;;;;5112783;28;20197;-72
2022/02/05 02:57:21;;;;;;;20.05;18.60;;;3.50;81.30;;;;;;5112942;28;20564;-72
2022/02/05 02:59:51;;;;;;;19.05;18.05;;;3.50;83.00;;;;;;5112645;28;20281;-72
2022/02/05 03:02:22;;;;;;;19.50;18.40;;;3.50;85.00;;;;;;5112911;28;20255;-72
2022/02/05 03:04:50;;;;;;;19.48;18.40;;;3.40;86.60;;;;;;5112851;28;20207;-72
2022/02/05 03:07:18;;;;;;;19.73;18.60;;;3.30;86.10;;;;;;5112682;28;20288;-72
2022/02/05 03:09:46;;;;;;;20.10;19.00;;;3.20;85.00;;;;;;5112542;28;20731;-72
2022/02/05 03:12:13;;;;;;;20.27;18.85;;;3.10;85.00;;;;;;5112666;28;20194;-72
2022/02/05 03:14:40;;;;;;;20.48;19.27;;;3.20;84.40;;;;;;5112237;27;20234;-72
2022/02/05 03:17:16;;;;;;;19.73;18.67;;;3.10;84.00;;;;;;5112656;28;20191;-72
2022/02/05 03:19:44;;;;;;;20.15;18.95;;;3.10;84.50;;;;;;5112205;28;20198;-72
2022/02/05 03:22:11;;;;;;;20.90;19.52;;;3.10;83.50;;;;;;5112606;28;20255;-72
2022/02/05 03:24:39;;;;;;;19.88;18.67;;;3.00;83.60;;;;;;5112636;28;20615;-72
2022/02/05 03:27:07;;;;;;;19.58;18.35;;;3.00;84.60;;;;;;5112683;28;20225;-72
2022/02/05 03:29:35;;;;;;;20.27;18.98;;;3.00;83.30;;;;;;5112498;28;20202;-72
2022/02/05 03:32:02;;;;;;;19.50;18.50;;;3.00;83.30;;;;;;5114229;28;20210;-72
2022/02/05 03:34:29;;;;;;;20.80;19.63;;;3.10;83.00;;;;;;5116410;27;20263;-72
2022/02/05 03:36:56;;;;;;;19.80;18.80;;;3.10;82.90;;;;;;5116369;28;20671;-72
2022/02/05 03:39:23;;;;;;;19.88;18.77;;;3.00;85.10;;;;;;5116253;28;20274;-73
2022/02/05 03:41:52;;;;;;;20.20;18.98;;;3.10;84.70;;;;;;5116264;28;20310;-72
2022/02/05 03:44:19;;;;;;;20.30;19.10;;;3.20;83.70;;;;;;5115961;28;20690;-72
2022/02/05 03:46:48;;;;;;;20.85;19.45;;;3.20;82.80;;;;;;5116178;28;20610;-72
2022/02/05 03:49:17;;;;;;;20.48;18.98;;;3.20;83.40;;;;;;5115902;28;20271;-72
2022/02/05 03:51:44;;;;;;;19.90;18.80;;;3.20;83.80;;;;;;5116114;27;20277;-72
2022/02/05 03:54:11;;;;;;;21.70;20.25;;;3.20;82.80;;;;;;5116032;28;20286;-72
2022/02/05 03:56:38;;;;;;;20.50;19.40;;;3.30;81.80;;;;;;5115806;28;20214;-72
2022/02/05 03:59:06;;;;;;;21.90;20.15;;;3.20;82.60;;;;;;5115961;28;20293;-72
2022/02/05 04:01:33;;;;;;;21.35;20.05;;;3.10;82.80;;;;;;5115672;28;20218;-71
2022/02/05 04:04:00;;;;;;;19.98;18.88;;;3.10;85.00;;;;;;5115751;28;20199;-72
2022/02/05 04:06:28;;;;;;;20.95;19.65;;;3.10;85.70;;;;;;5115544;28;20707;-71
2022/02/05 04:08:57;;;;;;;20.85;19.60;;;3.00;84.00;;;;;;5115641;28;20701;-72
2022/02/05 04:11:33;;;;;;;21.10;19.80;;;3.00;86.50;;;;;;5115706;28;20214;-72
2022/02/05 04:16:47;;;;;;;21.25;19.90;;;2.90;85.00;;;;;;5115590;28;20189;-71
2022/02/05 04:19:14;;;;;;;20.42;19.13;;;2.90;84.60;;;;;;5115098;28;20552;-72
2022/02/05 04:21:41;;;;;;;20.92;19.63;;;2.90;84.30;;;;;;5115315;28;20218;-72
2022/02/05 04:24:09;;;;;;;21.48;20.08;;;3.00;86.80;;;;;;5115374;28;20199;-72
2022/02/05 04:26:36;;;;;;;20.48;19.38;;;3.00;85.10;;;;;;5115185;27;20641;-72
2022/02/05 04:29:06;;;;;;;426.40;61.25;;;3.00;86.10;;;;;;5115102;27;20205;-72
2022/02/05 04:31:33;;;;;;;20.65;19.00;;;3.00;87.00;;;;;;5115081;28;20218;-72
2022/02/05 04:34:01;;;;;;;19.85;18.65;;;3.00;88.80;;;;;;5115267;28;20284;-72
2022/02/05 04:36:28;;;;;;;20.63;19.27;;;3.00;87.00;;;;;;5115209;28;20197;-72
2022/02/05 04:38:59;;;;;;;20.10;18.90;;;3.00;86.20;;;;;;5115304;28;20652;-72
2022/02/05 04:41:32;;;;;;;20.20;18.90;;;3.00;85.70;;;;;;5114783;27;20812;-72
2022/02/05 04:44:12;;;;;;;19.70;18.70;;;3.10;86.70;;;;;;5114880;28;20206;-72
2022/02/05 04:47:28;;;;;;;19.80;18.70;;;3.10;88.70;;;;;;5114832;28;20275;-71
2022/02/05 04:53:09;;;;;;;20.73;19.33;;;3.30;88.50;;;;;;5114888;28;20202;-72
2022/02/05 04:55:57;;;;;;;20.00;18.90;;;3.30;86.40;;;;;;5114716;28;20241;-72
2022/02/05 04:58:36;;;;;;;20.77;19.15;;;3.30;85.30;;;;;;5114768;28;20202;-72
2022/02/05 05:01:13;;;;;;;21.98;20.58;;;3.30;84.80;;;;;;5114407;28;20221;-72
2022/02/05 05:03:54;;;;;;;20.27;19.15;;;3.40;84.10;;;;;;5114654;28;20613;-72
2022/02/05 05:06:48;;;;;;;21.70;20.35;;;3.40;85.40;;;;;;5114397;28;20210;-72
2022/02/05 05:09:22;;;;;;;19.95;18.90;;;3.50;86.30;;;;;;5114383;27;20205;-72
2022/02/05 05:12:05;;;;;;;19.58;18.48;;;3.50;87.00;;;;;;5114431;28;20230;-72
2022/02/05 05:20:00;;;;;;;21.02;19.70;;;3.60;83.70;;;;;;5113803;27;20221;-72
2022/02/05 05:22:28;;;;;;;21.60;20.30;;;3.60;82.80;;;;;;5114241;28;20551;-72
2022/02/05 05:24:55;;;;;;;21.33;20.13;;;3.70;82.90;;;;;;5114172;28;20198;-72
2022/02/05 05:27:22;;;;;;;21.80;20.15;;;3.80;83.20;;;;;;5114128;28;20301;-72
2022/02/05 05:29:49;;;;;;;21.10;19.70;;;3.80;82.80;;;;;;5114064;28;20297;-72
2022/02/05 05:32:16;;;;;;;25.05;22.63;;;3.80;83.10;;;;;;5114060;28;20278;-72
2022/02/05 05:34:43;;;;;;;22.30;21.00;;;3.90;83.40;;;;;;5114036;28;20190;-72
2022/02/05 05:37:09;;;;;;;23.00;21.63;;;3.90;81.90;;;;;;5113844;28;20277;-72
2022/02/05 05:39:40;;;;;;;20.63;19.48;;;3.90;81.50;;;;;;5113780;28;20620;-72
2022/02/05 05:42:12;;;;;;;21.02;19.83;;;4.00;81.00;;;;;;5114014;28;20194;-72
2022/02/05 05:47:48;;;;;;;21.95;20.65;;;4.10;81.40;;;;;;5113737;28;20214;-72
2022/02/05 05:50:47;;;;;;;21.15;20.15;;;4.20;80.80;;;;;;5113612;27;20222;-72
2022/02/05 05:53:11;;;;;;;20.63;19.38;;;4.10;84.60;;;;;;5113507;28;20198;-72
2022/02/05 05:55:43;;;;;;;20.40;19.40;;;4.10;86.70;;;;;;5113144;28;20229;-72
2022/02/05 05:58:10;;;;;;;21.92;20.70;;;4.10;83.90;;;;;;5113626;28;20201;-72
2022/02/05 06:00:38;;;;;;;22.05;20.80;;;4.00;82.00;;;;;;5113472;28;20271;-72
2022/02/05 06:03:05;;;;;;;20.85;19.45;;;4.10;80.90;;;;;;5113474;28;20225;-72
2022/02/05 06:05:32;;;;;;;22.42;21.13;;;4.10;80.50;;;;;;5113462;28;20281;-72
2022/02/05 06:07:59;;;;;;;21.60;20.30;;;4.10;80.90;;;;;;5113378;28;20218;-71
2022/02/05 06:10:26;;;;;;;21.58;20.38;;;4.10;81.20;;;;;;5113214;28;20253;-72
2022/02/05 06:12:54;;;;;;;21.77;20.45;;;4.10;81.20;;;;;;5113272;28;20854;-72
2022/02/05 06:15:22;;;;;;;20.80;19.70;;;4.10;80.80;;;;;;5112961;27;20252;-72
2022/02/05 06:17:50;;;;;;;23.25;21.95;;;4.10;80.90;;;;;;5113243;28;20248;-72
2022/02/05 06:20:17;;;;;;;22.95;21.75;;;4.10;80.70;;;;;;5112753;28;20226;-72
2022/02/05 06:22:44;;;;;;;21.63;20.42;;;4.20;80.30;;;;;;5113259;28;20656;-72
2022/02/05 06:25:11;;;;;;;21.42;20.10;;;4.10;80.10;;;;;;5113186;28;20195;-71
2022/02/05 06:27:38;;;;;;;21.45;20.13;;;4.10;80.50;;;;;;5112970;28;20587;-72
2022/02/05 06:30:08;;;;;;;20.95;19.75;;;4.10;84.20;;;;;;5112851;28;20305;-72
2022/02/05 06:32:35;;;;;;;22.30;20.83;;;4.20;83.40;;;;;;5113060;28;20556;-72
2022/02/05 06:35:02;;;;;;;22.13;20.92;;;4.20;83.60;;;;;;5113024;28;20198;-72
2022/02/05 06:37:28;;;;;;;22.30;21.00;;;4.20;80.80;;;;;;5112971;28;20191;-72
2022/02/05 06:39:55;;;;;;;22.90;21.42;;;4.20;80.70;;;;;;5112629;28;20686;-71
2022/02/05 06:42:22;;;;;;;21.92;20.52;;;4.10;80.70;;;;;;5112895;28;20200;-71
2022/02/05 06:44:49;;;;;;;23.10;21.73;;;4.20;80.50;;;;;;5112900;28;20203;-71
2022/02/05 06:47:17;;;;;;;21.80;20.60;;;4.20;82.50;;;;;;5112863;28;20233;-71
2022/02/05 06:49:44;;;;;;;22.50;21.05;;;4.30;82.10;;;;;;5112538;28;20194;-72
2022/02/05 06:52:11;;;;;;;30.48;21.95;;;4.30;81.00;;;;;;5112839;28;20609;-72
2022/02/05 06:54:38;;;;;;;22.60;20.92;;;4.30;83.40;;;;;;5112735;28;20199;-72
2022/02/05 06:57:06;;;;;;;22.20;20.80;;;4.30;81.40;;;;;;5112835;28;20195;-72
2022/02/05 06:59:33;;;;;;;21.67;20.35;;;4.30;80.80;;;;;;5112544;28;20200;-72
2022/02/05 07:02:00;;;;;;;25.33;23.73;;;4.30;80.60;;;;;;5112607;28;20215;-72
2022/02/05 07:04:28;;;;;;;23.17;21.90;;;4.20;80.90;;;;;;5112705;28;20199;-72
2022/02/05 07:06:57;;;;;;;23.38;22.02;;;4.20;81.30;;;;;;5114143;28;20302;-72
2022/02/05 07:09:27;;;;;;;22.15;20.85;;;4.20;81.20;;;;;;5116576;28;20194;-72
2022/02/05 07:11:56;;;;;;;23.40;22.08;;;4.30;81.30;;;;;;5116716;28;20658;-72
2022/02/05 07:14:26;;;;;;;23.13;21.63;;;4.30;81.10;;;;;;5116558;28;20206;-71
2022/02/05 07:16:58;;;;;;;23.85;22.27;;;4.30;81.60;;;;;;5116775;28;20289;-72
2022/02/05 07:19:36;;;;;;;22.45;20.95;;;4.30;81.40;;;;;;5116255;28;20737;-72
2022/02/05 07:22:05;;;;;;;23.40;21.88;;;4.30;81.40;;;;;;5116536;28;20306;-72
2022/02/05 07:24:49;;;;;;;23.70;22.20;;;4.30;81.10;;;;;;5116650;28;20298;-72
2022/02/05 07:30:00;;;;;;;22.92;21.63;;;4.60;80.10;;;;;;5116157;28;20222;-72
2022/02/05 07:32:27;;;;;;;22.40;20.90;;;4.60;81.50;;;;;;5116347;28;20285;-72
2022/02/05 07:34:54;;;;;;;21.63;20.30;;;4.70;81.30;;;;;;5116299;28;20190;-72
2022/02/05 07:37:22;;;;;;;22.00;20.70;;;4.70;83.20;;;;;;5116222;27;20270;-72
2022/02/05 07:39:49;;;;;;;22.75;21.55;;;4.70;81.40;;;;;;5116015;28;20194;-72
2022/02/05 07:42:18;;;;;;;21.70;20.38;;;4.80;80.10;;;;;;5116087;28;20203;-72
2022/02/05 07:44:46;;;;;;;22.63;21.33;;;4.80;80.00;;;;;;5116067;28;20656;-72
2022/02/05 07:47:13;;;;;;;23.30;21.90;;;4.80;79.80;;;;;;5116114;28;20229;-72
2022/02/05 07:49:42;;;;;;;21.98;20.50;;;4.80;80.60;;;;;;5115596;28;20218;-72
2022/02/05 07:52:10;;;;;;;21.52;20.23;;;4.70;86.10;;;;;;5116241;28;20199;-72
2022/02/05 07:54:39;;;;;;;21.20;19.90;;;4.80;82.80;;;;;;5115943;28;20201;-72
2022/02/05 07:57:06;;;;;;;22.27;20.85;;;4.80;83.20;;;;;;5115805;28;20201;-72
2022/02/05 07:59:33;;;;;;;22.20;20.60;;;4.80;80.60;;;;;;5115551;28;20198;-72
2022/02/05 08:02:00;;;;;;;22.48;21.08;;;4.90;79.70;;;;;;5115560;28;20579;-72
2022/02/05 08:04:27;;;;;;;21.98;20.35;;;4.90;79.30;;;;;;5115769;28;20205;-72
2022/02/05 08:06:57;;;;;;;22.13;20.83;;;4.90;78.60;;;;;;5115694;28;20206;-72
2022/02/05 08:09:29;;;;;;;22.58;21.38;;;5.00;78.60;;;;;;5115487;28;20198;-72
2022/02/05 08:12:01;;;;;;;21.77;20.67;;;5.10;77.90;;;;;;5115603;28;20395;-72
2022/02/05 08:14:29;;;;;;;23.75;22.13;;;5.00;79.00;;;;;;5087910;22;20232;-72
2022/02/05 08:17:02;;;;;;;131.15;31.45;;;5.00;79.00;;;;;;5074600;28;20211;-72
2022/02/05 08:19:29;;;;;;;22.95;21.60;;;5.00;83.10;;;;;;5074572;28;20251;-72
2022/02/05 08:21:56;;;;;;;25.08;23.63;;;5.00;85.50;;;;;;5074878;28;20230;-72
2022/02/05 08:24:23;;;;;;;21.17;19.98;;;5.00;85.40;;;;;;5074968;28;20203;-72
2022/02/05 08:26:50;;;;;;;23.65;21.95;;;5.00;83.40;;;;;;5074807;28;20578;-72
2022/02/05 08:29:20;;;;;;;21.60;20.30;;;5.10;84.50;;;;;;5074593;28;20203;-72
2022/02/05 08:31:47;;;;;;;22.25;20.85;;;5.20;81.70;;;;;;5074588;28;20303;-72
2022/02/05 08:34:15;;;;;;;21.35;19.90;;;5.20;81.10;;;;;;5074800;28;20288;-72
2022/02/05 08:36:46;;;;;;;20.98;19.88;;;5.10;80.50;;;;;;5074564;28;20196;-72
2022/02/05 08:39:13;;;;;;;23.75;22.20;;;5.30;79.50;;;;;;5074444;28;20295;-72
2022/02/05 08:41:41;;;;;;;22.77;21.48;;;5.40;77.50;;;;;;5074203;28;20224;-72
2022/02/05 08:44:08;;;;;;;22.50;21.00;;;5.40;76.80;;;;;;5074348;28;20730;-72
2022/02/05 08:46:36;;;;;;;22.05;20.75;;;5.50;76.70;;;;;;5074468;28;20198;-72
2022/02/05 08:49:04;;;;;;;22.40;21.20;;;5.50;76.80;;;;;;5074280;28;20304;-72
2022/02/05 08:51:31;;;;;;;22.15;20.50;;;5.60;75.70;;;;;;5074198;28;20727;-72
2022/02/05 08:53:59;;;;;;;22.73;21.23;;;5.60;76.20;;;;;;5074305;28;20196;-72
2022/02/05 08:56:26;;;;;;;20.98;19.88;;;5.70;76.10;;;;;;5074015;28;20200;-72
2022/02/05 08:58:54;;;;;;;25.08;23.10;;;5.70;75.60;;;;;;5074244;28;20245;-72
2022/02/05 09:01:25;;;;;;;23.15;21.40;;;5.70;78.30;;;;;;5073948;28;20273;-72
2022/02/05 09:04:02;;;;;;;25.35;23.55;;;5.90;75.80;;;;;;5074228;28;20291;-72
2022/02/05 09:06:34;;;;;;;24.17;22.55;;;5.90;76.10;;;;;;5074071;28;20204;-72
2022/02/05 09:09:09;;;;;;;22.88;21.48;;;5.80;77.50;;;;;;5073958;28;20273;-72
2022/02/05 09:11:42;;;;;;;24.25;22.40;;;5.90;77.10;;;;;;5073908;28;20278;-72
2022/02/05 09:14:28;;;;;;;23.45;21.90;;;6.00;79.40;;;;;;5073506;28;20208;-72
2022/02/05 09:16:55;;;;;;;23.45;21.75;;;6.10;77.60;;;;;;5073882;28;20257;-72
2022/02/05 09:19:23;;;;;;;24.00;22.45;;;6.10;75.70;;;;;;5073352;28;20296;-72
2022/02/05 09:21:51;;;;;;;23.60;21.88;;;6.20;74.60;;;;;;5073609;28;20584;-72
2022/02/05 09:24:18;;;;;;;23.92;22.33;;;6.30;75.10;;;;;;5073682;28;20205;-71
2022/02/05 09:26:49;;;;;;;22.52;21.17;;;6.30;74.20;;;;;;5073556;28;20198;-72
2022/02/05 09:29:19;;;;;;;25.13;23.38;;;6.30;74.50;;;;;;5072577;28;20689;-72
2022/02/05 09:31:47;;;;;;;23.50;21.58;;;6.30;73.80;;;;;;5073446;28;20217;-72
2022/02/05 09:34:14;;;;;;;22.60;21.00;;;6.40;76.40;;;;;;5073407;28;20207;-72
2022/02/05 09:36:43;;;;;;;22.98;21.23;;;6.50;72.50;;;;;;5073427;28;20637;-72
2022/02/05 09:39:10;;;;;;;23.73;22.05;;;6.60;71.70;;;;;;5073344;28;20207;-72
2022/02/05 09:41:37;;;;;;;22.50;21.10;;;6.60;71.20;;;;;;5073513;28;20243;-72
2022/02/05 09:44:05;;;;;;;22.10;20.75;;;6.50;71.60;;;;;;5073326;28;20286;-72
2022/02/05 09:46:33;;;;;;;23.90;22.23;;;6.50;71.20;;;;;;5073185;28;20282;-72
2022/02/05 09:49:01;;;;;;;21.48;20.17;;;6.50;71.10;;;;;;5073137;28;20620;-72
2022/02/05 09:51:30;;;;;;;23.00;21.52;;;6.60;71.30;;;;;;5073137;28;20248;-72
2022/02/05 09:54:00;;;;;;;21.33;20.13;;;6.60;70.60;;;;;;5073093;28;20538;-72
2022/02/05 09:56:29;;;;;;;22.40;21.00;;;6.60;71.40;;;;;;5073120;28;20197;-72
2022/02/05 09:58:56;;;;;;;21.80;20.50;;;6.70;70.70;;;;;;5073136;28;20199;-72
2022/02/05 10:01:27;;;;;;;23.10;21.42;;;6.90;70.70;;;;;;5072920;28;20222;-72
2022/02/05 10:03:55;;;;;;;20.23;19.23;;;6.90;69.70;;;;;;5073165;28;20215;-72
2022/02/05 10:06:26;;;;;;;21.73;20.40;;;6.90;69.50;;;;;;5072971;28;20722;-72
2022/02/05 10:09:08;;;;;;;22.00;20.35;;;6.90;69.20;;;;;;5072914;28;20707;-72
2022/02/05 10:11:48;;;;;;;21.63;20.33;;;7.00;69.90;;;;;;5072827;28;20227;-72
2022/02/05 10:14:18;;;;;;;21.35;20.15;;;6.90;69.60;;;;;;5072603;28;20216;-71
2022/02/05 10:16:50;;;;;;;22.35;20.88;;;7.00;69.40;;;;;;5072814;28;20227;-71
2022/02/05 10:19:17;;;;;;;22.20;20.70;;;7.10;68.90;;;;;;5072383;28;20188;-71
2022/02/05 10:21:44;;;;;;;21.15;19.75;;;7.10;69.00;;;;;;5072802;28;20302;-71
2022/02/05 10:24:13;;;;;;;21.52;20.23;;;7.20;68.40;;;;;;5072804;28;20203;-72
2022/02/05 10:26:41;;;;;;;23.70;22.13;;;7.20;70.20;;;;;;5072658;28;20565;-71
2022/02/05 10:29:11;;;;;;;21.50;20.35;;;7.30;69.90;;;;;;5072615;28;20227;-71
2022/02/05 10:32:01;;;;;;;21.27;19.88;;;7.40;68.70;;;;;;5072582;28;20216;-71
2022/02/05 10:34:30;;;;;;;22.92;21.13;;;7.50;67.60;;;;;;5072801;28;20235;-72
2022/02/05 10:37:12;;;;;;;24.67;22.85;;;7.60;66.90;;;;;;5072629;28;20258;-71
2022/02/05 10:45:09;;;;;;;23.55;21.70;;;8.00;65.70;;;;;;5072641;28;20191;-72
2022/02/05 10:47:51;;;;;;;23.27;21.48;;;8.00;64.90;;;;;;5072445;28;20631;-72
2022/02/05 10:50:25;;;;;;;23.10;21.65;;;8.10;64.50;;;;;;5072230;28;20721;-72
2022/02/05 10:52:57;;;;;;;22.40;21.08;;;8.20;64.00;;;;;;5072566;28;20210;-72
2022/02/05 10:55:44;;;;;;;20.42;19.35;;;8.30;63.40;;;;;;5072441;28;20241;-72
2022/02/05 11:06:58;;;;;;;22.92;21.33;;;8.70;61.90;;;;;;5072312;28;20216;-72
2022/02/05 11:09:25;;;;;;;23.88;22.30;;;8.70;61.80;;;;;;5071971;28;20243;-72
2022/02/05 11:20:31;;;;;;;22.73;21.15;;;9.00;61.00;;;;;;5061371;28;20227;-72
2022/02/05 11:23:01;;;;;;;22.60;20.90;;;9.00;60.20;;;;;;5072054;28;20208;-72
2022/02/05 11:25:32;;;;;;;22.92;21.08;;;8.90;60.30;;;;;;5072171;28;20258;-72
2022/02/05 11:28:00;;;;;;;22.35;20.65;;;9.00;60.20;;;;;;5072019;28;20202;-72
2022/02/05 11:30:39;;;;;;;21.42;20.20;;;9.00;60.20;;;;;;5071693;28;20217;-72
2022/02/05 11:33:19;;;;;;;22.00;20.70;;;9.00;60.30;;;;;;5072026;28;20193;-72
2022/02/05 11:36:10;;;;;;;22.40;21.10;;;9.00;59.60;;;;;;5072093;28;20288;-72
2022/02/05 11:38:38;;;;;;;22.02;20.48;;;8.70;58.30;;;;;;5071977;28;20206;-72
2022/02/05 11:41:06;;;;;;;21.50;20.20;;;8.60;59.20;;;;;;5071623;28;20563;-72
2022/02/05 11:43:36;;;;;;;23.05;21.65;;;8.70;59.30;;;;;;5071882;28;20254;-72
2022/02/05 11:46:07;;;;;;;23.23;22.02;;;8.70;59.70;;;;;;5072002;28;20204;-73
2022/02/05 11:48:57;;;;;;;22.33;21.10;;;8.80;59.00;;;;;;5071927;28;20296;-73
2022/02/05 11:51:26;;;;;;;22.70;21.27;;;8.80;58.60;;;;;;5071496;28;20696;-72
2022/02/05 11:54:09;;;;;;;22.98;21.60;;;8.90;58.00;;;;;;5074599;28;20693;-73
2022/02/05 11:56:53;;;;;;;22.20;20.92;;;8.70;57.10;;;;;;5075436;28;20677;-72
2022/02/05 11:59:24;;;;;;;20.90;19.70;;;8.70;57.70;;;;;;5075174;28;20196;-72
2022/02/05 12:01:51;;;;;;;22.23;20.85;;;8.90;56.90;;;;;;5075397;28;20785;-72
2022/02/05 12:04:22;;;;;;;22.40;21.08;;;8.90;57.40;;;;;;5075384;28;20201;-72
2022/02/05 12:06:52;;;;;;;23.30;22.10;;;8.80;57.50;;;;;;5075445;28;20614;-72
2022/02/05 12:09:41;;;;;;;21.38;20.27;;;8.90;57.40;;;;;;5074916;28;20216;-72
2022/02/05 12:12:39;;;;;;;21.88;20.42;;;9.00;56.10;;;;;;5075291;28;20207;-72
2022/02/05 12:15:26;;;;;;;21.15;19.90;;;8.90;56.50;;;;;;5074955;28;20203;-72
2022/02/05 12:18:12;;;;;;;22.05;20.63;;;8.90;56.80;;;;;;5075146;28;20204;-71
2022/02/05 12:21:05;;;;;;;22.80;21.40;;;8.90;55.90;;;;;;5074671;28;20217;-72
2022/02/05 12:27:00;;;;;;;22.95;21.65;;;8.90;55.40;;;;;;5074928;28;20193;-72
2022/02/05 12:29:33;;;;;;;23.63;22.23;;;8.70;55.30;;;;;;5074751;28;20316;-72
2022/02/05 12:32:05;;;;;;;21.58;20.27;;;8.60;56.30;;;;;;5074798;28;20220;-72
2022/02/05 12:34:37;;;;;;;22.98;21.60;;;8.50;56.70;;;;;;5074792;28;20211;-72
2022/02/05 12:37:05;;;;;;;23.17;21.55;;;8.60;57.20;;;;;;5074644;28;20201;-72
2022/02/05 12:39:35;;;;;;;21.92;20.75;;;8.70;56.90;;;;;;5074491;28;20228;-72
2022/02/05 12:42:06;;;;;;;21.27;20.08;;;8.80;56.20;;;;;;5074588;28;20224;-72
2022/02/05 12:44:36;;;;;;;21.58;20.20;;;8.70;56.30;;;;;;5074650;28;20205;-72
2022/02/05 12:47:10;;;;;;;21.75;20.33;;;8.70;57.10;;;;;;5074668;28;20197;-72
2022/02/05 12:49:44;;;;;;;22.60;21.50;;;8.80;56.90;;;;;;5074047;28;20220;-72
2022/02/05 12:52:13;;;;;;;22.33;21.02;;;8.80;56.20;;;;;;5074551;28;20193;-72
2022/02/05 12:54:47;;;;;;;21.55;20.30;;;8.80;56.20;;;;;;5074337;28;20207;-72
2022/02/05 12:57:17;;;;;;;23.08;21.67;;;8.70;56.00;;;;;;5074409;28;20284;-72
2022/02/05 12:59:44;;;;;;;22.75;21.27;;;8.80;56.40;;;;;;5073842;28;20208;-72
2022/02/05 13:02:14;;;;;;;24.00;22.70;;;8.80;56.60;;;;;;5074202;28;20363;-72
2022/02/05 13:04:43;;;;;;;21.85;20.55;;;9.00;55.60;;;;;;5074276;28;20213;-72
2022/02/05 13:07:11;;;;;;;23.38;22.17;;;8.90;56.00;;;;;;5074177;28;20199;-72
2022/02/05 13:09:45;;;;;;;21.38;20.27;;;8.90;55.80;;;;;;5073843;28;20232;-72
2022/02/05 13:12:13;;;;;;;21.55;20.50;;;9.00;55.80;;;;;;5074079;28;20284;-72
2022/02/05 13:14:47;;;;;;;22.13;20.77;;;9.00;55.70;;;;;;5073640;28;20232;-72
2022/02/05 13:17:37;;;;;;;21.63;20.42;;;9.10;55.80;;;;;;5074026;28;20280;-72
2022/02/05 13:26:05;;;;;;;22.00;20.63;;;9.10;55.60;;;;;;5073810;28;20201;-72
2022/02/05 13:28:40;;;;;;;21.95;20.75;;;9.00;56.00;;;;;;5073657;28;20199;-72
2022/02/05 13:34:03;;;;;;;23.25;21.98;;;8.80;56.40;;;;;;5073724;28;20265;-72
2022/02/05 13:36:43;;;;;;;21.75;20.55;;;8.90;56.60;;;;;;5073594;28;20729;-72
2022/02/05 13:39:28;;;;;;;23.05;21.95;;;8.70;55.60;;;;;;5073398;28;20225;-72
2022/02/05 13:41:57;;;;;;;21.83;20.63;;;8.80;55.60;;;;;;5073337;28;20717;-72
2022/02/05 13:44:29;;;;;;;22.38;20.98;;;8.70;55.60;;;;;;5073390;28;20211;-72
2022/02/05 13:47:04;;;;;;;21.90;20.60;;;8.80;56.00;;;;;;5073439;28;20209;-72
2022/02/05 13:49:33;;;;;;;22.42;21.13;;;8.90;56.40;;;;;;5073140;28;20329;-72
2022/02/05 13:52:08;;;;;;;20.98;19.77;;;8.90;56.00;;;;;;5073196;28;20216;-72
2022/02/05 13:54:36;;;;;;;20.92;19.83;;;8.90;57.10;;;;;;5073225;28;20736;-72
2022/02/05 13:57:04;;;;;;;20.42;19.13;;;8.70;55.80;;;;;;5073282;28;20200;-72
2022/02/05 13:59:32;;;;;;;21.48;20.27;;;8.50;57.00;;;;;;5072938;28;20565;-72
2022/02/05 14:02:16;;;;;;;21.90;20.60;;;8.50;56.80;;;;;;5073078;28;20629;-72
2022/02/05 14:04:44;;;;;;;22.30;20.45;;;8.50;57.40;;;;;;5072882;28;20284;-72
2022/02/05 14:07:11;;;;;;;23.17;22.05;;;8.50;57.00;;;;;;5073064;28;20249;-72
2022/02/05 14:09:38;;;;;;;21.17;20.08;;;8.50;57.60;;;;;;5072655;28;20702;-72
2022/02/05 14:12:16;;;;;;;22.92;21.42;;;8.50;57.30;;;;;;5072763;28;20229;-72
2022/02/05 14:14:43;;;;;;;22.67;21.30;;;8.30;58.20;;;;;;5072613;28;20304;-72
2022/02/05 14:17:18;;;;;;;21.75;20.55;;;8.30;58.40;;;;;;5072627;28;20205;-72
2022/02/05 14:19:48;;;;;;;22.25;21.20;;;8.30;58.80;;;;;;5072295;28;20669;-72
2022/02/05 14:22:25;;;;;;;23.30;21.63;;;8.40;59.30;;;;;;5072829;28;20199;-72
2022/02/05 14:25:13;;;;;;;22.95;21.50;;;8.60;59.40;;;;;;5072908;28;20205;-72
2022/02/05 14:28:10;;;;;;;25.10;23.40;;;8.70;58.00;;;;;;5072759;28;20201;-72
2022/02/05 14:30:41;;;;;;;22.17;20.88;;;8.60;58.00;;;;;;5072524;28;20250;-72
2022/02/05 14:33:09;;;;;;;25.10;23.50;;;8.60;58.10;;;;;;5072898;28;20539;-72